createdAt,value
2023-11-30T00:00:54.128Z,18.40
2023-11-30T00:03:19.645Z,20.60
2023-11-30T00:05:28.315Z,19.90
2023-11-30T00:07:36.834Z,15.00
2023-11-30T00:09:45.588Z,16.40
2023-11-30T00:11:54.251Z,20.70
2023-11-30T00:14:03.420Z,14.60
2023-11-30T00:16:14.060Z,18.40
2023-11-30T00:18:22.869Z,16.40
2023-11-30T00:20:31.553Z,18.50
2023-11-30T00:22:41.170Z,19.80
2023-11-30T00:24:49.779Z,18.20
2023-11-30T00:26:58.382Z,16.30
2023-11-30T00:29:07.129Z,18.90
2023-11-30T00:31:16.145Z,16.40
2023-11-30T00:33:24.875Z,15.10
2023-11-30T00:35:33.477Z,14.20
2023-11-30T00:37:42.415Z,12.80
2023-11-30T00:39:51.139Z,19.10
2023-11-30T00:42:00.901Z,18.00
2023-11-30T00:44:09.762Z,18.10
2023-11-30T00:46:20.812Z,15.30
2023-11-30T00:48:29.447Z,19.40
2023-11-30T00:50:37.944Z,18.50
2023-11-30T00:52:47.041Z,17.80
2023-11-30T00:54:55.619Z,17.80
2023-11-30T00:57:04.227Z,17.60
2023-11-30T00:59:12.811Z,17.30
2023-11-30T01:01:22.217Z,13.40
2023-11-30T01:03:31.227Z,17.70
2023-11-30T01:05:39.943Z,14.70
2023-11-30T01:07:48.779Z,17.10
2023-11-30T01:09:57.513Z,17.50
2023-11-30T01:12:07.233Z,17.00
2023-11-30T01:14:15.783Z,19.30
2023-11-30T01:16:24.820Z,17.90
2023-11-30T01:18:34.120Z,17.70
2023-11-30T01:20:42.822Z,16.00
2023-11-30T01:22:51.452Z,17.70
2023-11-30T01:25:00.257Z,19.40
2023-11-30T01:27:10.045Z,16.90
2023-11-30T01:29:19.065Z,19.50
2023-11-30T01:31:27.983Z,19.10
2023-11-30T01:33:37.770Z,18.40
2023-11-30T01:35:46.565Z,16.00
2023-11-30T01:37:55.074Z,16.20
2023-11-30T01:40:03.616Z,18.40
2023-11-30T01:42:12.120Z,16.50
2023-11-30T01:44:20.706Z,18.60
2023-11-30T01:46:29.909Z,19.40
2023-11-30T01:48:39.094Z,13.80
2023-11-30T01:50:48.782Z,17.80
2023-11-30T01:52:58.389Z,18.40
2023-11-30T01:55:09.614Z,15.10
2023-11-30T01:57:18.566Z,17.90
2023-11-30T01:59:27.506Z,17.80
2023-11-30T02:01:36.887Z,21.50
2023-11-30T02:03:46.191Z,17.70
2023-11-30T02:05:55.572Z,18.60
2023-11-30T02:08:04.965Z,15.90
2023-11-30T02:10:13.838Z,17.10
2023-11-30T02:12:22.464Z,17.70
2023-11-30T02:14:31.641Z,16.00
2023-11-30T02:16:40.440Z,13.80
2023-11-30T02:18:49.151Z,13.70
2023-11-30T02:20:57.845Z,17.10
2023-11-30T02:23:06.444Z,17.90
2023-11-30T02:25:15.537Z,18.50
2023-11-30T02:27:24.599Z,18.50
2023-11-30T02:29:33.981Z,19.30
2023-11-30T02:31:42.619Z,17.80
2023-11-30T02:33:51.507Z,15.80
2023-11-30T02:36:00.335Z,16.30
2023-11-30T02:38:08.835Z,14.80
2023-11-30T02:40:17.918Z,12.80
2023-11-30T02:42:26.593Z,16.20
2023-11-30T02:44:35.040Z,17.20
2023-11-30T02:46:44.805Z,16.20
2023-11-30T02:48:53.436Z,18.20
2023-11-30T02:51:02.271Z,13.20
2023-11-30T02:53:11.073Z,16.10
2023-11-30T02:55:20.220Z,17.70
2023-11-30T02:57:28.867Z,17.30
2023-11-30T02:59:37.637Z,17.20
2023-11-30T03:01:49.719Z,15.20
2023-11-30T03:03:58.308Z,16.70
2023-11-30T03:06:11.251Z,18.20
2023-11-30T03:08:19.859Z,19.50
2023-11-30T03:10:28.337Z,16.60
2023-11-30T03:12:36.777Z,18.20
2023-11-30T03:14:48.719Z,11.60
2023-11-30T03:16:57.943Z,13.90
2023-11-30T03:19:16.186Z,12.60
2023-11-30T03:21:27.153Z,12.70
2023-11-30T03:23:37.267Z,16.60
2023-11-30T03:25:47.134Z,15.90
2023-11-30T03:27:55.760Z,16.60
2023-11-30T03:34:11.016Z,9.10
2023-11-30T03:36:19.855Z,13.40
2023-11-30T03:38:28.440Z,8.10
2023-11-30T03:40:36.963Z,15.60
2023-11-30T03:42:45.499Z,15.90
2023-11-30T03:44:54.207Z,17.10
2023-11-30T03:47:02.810Z,15.50
2023-11-30T03:49:11.313Z,15.40
2023-11-30T03:51:19.820Z,16.90
2023-11-30T03:53:28.336Z,11.50
2023-11-30T03:55:36.954Z,10.30
2023-11-30T03:57:45.590Z,11.30
2023-11-30T03:59:54.337Z,16.90
2023-11-30T04:02:02.881Z,17.70
2023-11-30T04:04:11.929Z,16.40
2023-11-30T04:06:24.031Z,13.40
2023-11-30T04:10:39.527Z,9.30
2023-11-30T04:12:48.053Z,13.20
2023-11-30T04:14:56.971Z,13.10
2023-11-30T04:17:05.694Z,15.10
2023-11-30T04:19:14.382Z,12.60
2023-11-30T04:21:23.754Z,13.20
2023-11-30T04:23:32.608Z,18.30
2023-11-30T04:25:41.278Z,18.50
2023-11-30T04:27:49.863Z,18.10
2023-11-30T04:29:58.810Z,18.30
2023-11-30T04:32:08.768Z,16.60
2023-11-30T04:34:18.392Z,16.40
2023-11-30T04:36:27.610Z,15.10
2023-11-30T04:38:36.120Z,18.80
2023-11-30T04:40:44.665Z,14.00
2023-11-30T04:42:53.144Z,17.50
2023-11-30T04:45:01.656Z,16.50
2023-11-30T04:47:10.751Z,18.80
2023-11-30T04:49:19.266Z,12.80
2023-11-30T04:51:27.681Z,19.20
2023-11-30T04:53:37.350Z,19.80
2023-11-30T04:55:46.139Z,18.80
2023-11-30T04:57:54.975Z,15.50
2023-11-30T05:00:03.699Z,17.80
2023-11-30T05:02:13.217Z,18.70
2023-11-30T05:04:22.033Z,22.30
2023-11-30T05:06:30.557Z,20.90
2023-11-30T05:08:39.148Z,21.10
2023-11-30T05:10:47.767Z,26.40
2023-11-30T05:12:56.398Z,18.40
2023-11-30T05:15:05.380Z,23.80
2023-11-30T05:17:14.157Z,18.10
2023-11-30T05:19:22.540Z,20.70
2023-11-30T05:21:31.063Z,13.50
2023-11-30T05:23:39.762Z,19.90
2023-11-30T05:25:48.516Z,17.30
2023-11-30T05:27:57.114Z,21.00
2023-11-30T05:30:06.081Z,19.80
2023-11-30T05:32:14.708Z,18.40
2023-11-30T05:34:23.144Z,19.10
2023-11-30T05:36:31.656Z,16.30
2023-11-30T05:38:40.145Z,19.80
2023-11-30T05:40:49.037Z,19.30
2023-11-30T05:42:57.615Z,23.00
2023-11-30T05:45:07.864Z,24.30
2023-11-30T05:47:16.778Z,21.60
2023-11-30T05:49:25.151Z,22.30
2023-11-30T05:51:34.056Z,22.00
2023-11-30T05:53:42.666Z,24.00
2023-11-30T05:55:51.305Z,23.20
2023-11-30T05:57:59.817Z,22.60
2023-11-30T06:00:11.840Z,22.40
2023-11-30T06:02:23.771Z,21.60
2023-11-30T06:04:32.643Z,24.60
2023-11-30T06:06:42.597Z,25.90
2023-11-30T06:08:51.160Z,21.60
2023-11-30T06:11:00.214Z,27.00
2023-11-30T06:13:09.695Z,27.20
2023-11-30T06:15:18.436Z,25.60
2023-11-30T06:17:27.037Z,26.50
2023-11-30T06:19:35.588Z,26.20
2023-11-30T06:21:44.133Z,25.10
2023-11-30T06:23:52.808Z,26.80
2023-11-30T06:26:01.397Z,25.30
2023-11-30T06:28:09.890Z,25.90
2023-11-30T06:30:19.275Z,24.40
2023-11-30T06:32:28.072Z,25.40
2023-11-30T06:34:38.508Z,24.10
2023-11-30T06:36:48.180Z,24.90
2023-11-30T06:38:56.687Z,23.60
2023-11-30T06:41:11.880Z,24.50
2023-11-30T06:43:20.397Z,25.10
2023-11-30T06:45:29.020Z,23.70
2023-11-30T06:47:39.959Z,22.40
2023-11-30T06:49:50.313Z,22.00
2023-11-30T06:52:02.849Z,22.70
2023-11-30T06:54:13.715Z,23.00
2023-11-30T06:56:23.132Z,22.20
2023-11-30T06:58:33.330Z,21.90
2023-11-30T07:00:42.804Z,21.10
2023-11-30T07:02:52.670Z,21.70
2023-11-30T07:05:05.822Z,20.30
2023-11-30T07:07:23.981Z,22.20
2023-11-30T07:09:40.662Z,21.60
2023-11-30T07:11:50.211Z,24.70
2023-11-30T07:14:01.077Z,26.20
2023-11-30T07:16:14.574Z,25.80
2023-11-30T07:18:23.479Z,24.10
2023-11-30T07:20:31.963Z,25.40
2023-11-30T07:22:40.538Z,25.40
2023-11-30T07:24:50.460Z,30.00
2023-11-30T07:26:58.927Z,31.00
2023-11-30T07:29:07.394Z,50.20
2023-11-30T07:31:22.543Z,45.00
2023-11-30T07:33:31.537Z,44.60
2023-11-30T07:35:41.651Z,37.70
2023-11-30T07:37:50.765Z,33.90
2023-11-30T07:40:00.269Z,35.00
2023-11-30T07:42:09.232Z,30.30
2023-11-30T07:44:17.942Z,34.70
2023-11-30T07:46:26.633Z,34.50
2023-11-30T07:48:35.117Z,43.60
2023-11-30T07:50:43.546Z,40.40
2023-11-30T07:52:53.594Z,37.80
2023-11-30T07:55:03.539Z,36.20
2023-11-30T07:57:13.359Z,36.00
2023-11-30T07:59:21.818Z,30.50
2023-11-30T08:01:30.545Z,33.20
2023-11-30T08:03:39.307Z,31.50
2023-11-30T08:05:47.871Z,30.60
2023-11-30T08:07:56.926Z,30.00
2023-11-30T08:10:07.635Z,29.20
2023-11-30T08:12:16.165Z,31.90
2023-11-30T08:14:24.636Z,33.60
2023-11-30T08:16:33.070Z,29.80
2023-11-30T08:18:42.088Z,30.70
2023-11-30T08:20:50.590Z,29.20
2023-11-30T08:22:59.329Z,27.30
2023-11-30T08:25:09.693Z,26.10
2023-11-30T08:27:18.111Z,26.50
2023-11-30T08:29:26.532Z,36.10
2023-11-30T08:31:38.092Z,28.50
2023-11-30T08:33:48.786Z,20.90
2023-11-30T08:35:58.156Z,26.20
2023-11-30T08:38:06.783Z,28.40
2023-11-30T08:40:15.791Z,24.10
2023-11-30T08:42:24.677Z,29.90
2023-11-30T08:44:36.385Z,26.90
2023-11-30T08:46:44.890Z,25.10
2023-11-30T08:48:53.490Z,31.10
2023-11-30T08:51:02.183Z,31.40
2023-11-30T08:53:11.002Z,28.70
2023-11-30T08:55:19.638Z,24.30
2023-11-30T08:57:28.203Z,22.90
2023-11-30T08:59:36.787Z,24.70
2023-11-30T09:01:45.505Z,23.30
2023-11-30T09:03:55.947Z,23.30
2023-11-30T09:06:04.667Z,23.90
2023-11-30T09:08:13.116Z,22.80
2023-11-30T09:10:21.607Z,17.10
2023-11-30T09:12:30.201Z,23.20
2023-11-30T09:14:39.042Z,20.10
2023-11-30T09:16:47.714Z,19.70
2023-11-30T09:18:56.529Z,23.40
2023-11-30T09:21:05.055Z,20.40
2023-11-30T09:23:13.537Z,20.20
2023-11-30T09:25:22.085Z,21.90
2023-11-30T09:27:31.025Z,21.70
2023-11-30T09:29:40.321Z,22.10
2023-11-30T09:31:49.008Z,19.90
2023-11-30T09:33:57.475Z,19.90
2023-11-30T09:36:06.718Z,18.50
2023-11-30T09:38:15.240Z,17.50
2023-11-30T09:40:23.954Z,19.40
2023-11-30T09:42:32.595Z,22.30
2023-11-30T09:44:41.404Z,19.00
2023-11-30T09:46:51.199Z,20.10
2023-11-30T09:48:59.679Z,22.40
2023-11-30T09:51:11.957Z,19.10
2023-11-30T09:53:20.696Z,18.90
2023-11-30T09:55:30.632Z,17.40
2023-11-30T09:57:39.166Z,17.70
2023-11-30T09:59:48.275Z,20.50
2023-11-30T10:02:00.896Z,19.10
2023-11-30T10:04:18.455Z,21.30
2023-11-30T10:06:27.049Z,17.20
2023-11-30T10:08:35.515Z,18.80
2023-11-30T10:10:43.942Z,17.10
2023-11-30T10:12:54.385Z,23.30
2023-11-30T10:15:06.385Z,19.20
2023-11-30T10:19:22.179Z,28.00
2023-11-30T10:21:30.822Z,26.90
2023-11-30T10:23:39.333Z,28.40
2023-11-30T10:25:48.548Z,26.80
2023-11-30T10:27:59.966Z,26.60
2023-11-30T10:30:15.984Z,25.20
2023-11-30T10:32:25.512Z,28.50
2023-11-30T10:34:43.396Z,28.60
2023-11-30T10:36:52.851Z,28.70
2023-11-30T10:39:08.959Z,29.40
2023-11-30T10:41:37.099Z,26.90
2023-11-30T10:43:50.588Z,28.60
2023-11-30T10:46:01.630Z,27.00
2023-11-30T10:48:13.574Z,31.60
2023-11-30T10:52:29.937Z,33.80
2023-11-30T10:54:45.304Z,31.40
2023-11-30T10:56:54.182Z,30.20
2023-11-30T10:59:03.229Z,30.40
2023-11-30T11:01:14.994Z,27.90
2023-11-30T11:03:25.131Z,29.30
2023-11-30T11:05:33.733Z,28.90
2023-11-30T11:07:45.294Z,28.70
2023-11-30T11:09:59.376Z,23.70
2023-11-30T11:12:19.103Z,22.80
2023-11-30T11:14:34.223Z,26.60
2023-11-30T11:16:45.506Z,23.50
2023-11-30T11:19:04.677Z,25.60
2023-11-30T11:21:27.559Z,22.70
2023-11-30T11:23:40.868Z,25.50
2023-11-30T11:25:49.718Z,20.90
2023-11-30T11:27:58.336Z,25.40
2023-11-30T11:30:10.256Z,29.60
2023-11-30T11:34:25.602Z,28.60
2023-11-30T11:36:38.885Z,29.70
2023-11-30T11:38:47.631Z,29.00
2023-11-30T11:40:56.147Z,24.10
2023-11-30T11:43:04.639Z,24.90
2023-11-30T11:45:13.723Z,24.90
2023-11-30T11:47:24.334Z,22.60
2023-11-30T11:49:32.890Z,24.20
2023-11-30T11:51:51.104Z,24.80
2023-11-30T11:54:00.306Z,25.10
2023-11-30T11:56:12.097Z,25.10
2023-11-30T11:58:20.705Z,26.50
2023-11-30T12:00:29.237Z,25.30
2023-11-30T12:02:37.926Z,24.90
2023-11-30T12:04:46.555Z,26.00
2023-11-30T12:06:55.342Z,28.40
2023-11-30T12:09:14.288Z,29.30
2023-11-30T12:11:23.960Z,25.80
2023-11-30T12:13:38.701Z,27.70
2023-11-30T12:15:49.927Z,26.80
2023-11-30T12:17:59.422Z,25.50
2023-11-30T12:20:09.612Z,24.50
2023-11-30T12:22:18.149Z,24.50
2023-11-30T12:24:26.594Z,23.50
2023-11-30T12:26:35.078Z,19.00
2023-11-30T12:28:43.499Z,19.80
2023-11-30T12:30:52.045Z,13.80
2023-11-30T12:33:00.712Z,16.30
2023-11-30T12:35:10.828Z,17.40
2023-11-30T12:37:19.649Z,17.20
2023-11-30T12:39:28.107Z,16.70
2023-11-30T12:41:36.794Z,16.40
2023-11-30T12:43:45.382Z,16.10
2023-11-30T12:45:54.479Z,18.60
2023-11-30T12:48:03.274Z,19.10
2023-11-30T12:50:12.973Z,20.90
2023-11-30T12:52:22.230Z,20.20
2023-11-30T12:54:30.945Z,20.50
2023-11-30T12:56:39.416Z,24.50
2023-11-30T12:58:48.144Z,30.10
2023-11-30T13:00:56.758Z,29.50
2023-11-30T13:03:05.316Z,25.40
2023-11-30T13:05:14.406Z,25.90
2023-11-30T13:07:22.887Z,30.60
2023-11-30T13:09:33.811Z,21.50
2023-11-30T13:11:42.308Z,18.50
2023-11-30T13:13:51.841Z,19.50
2023-11-30T13:16:03.547Z,22.70
2023-11-30T13:18:12.158Z,23.00
2023-11-30T13:20:20.830Z,23.80
2023-11-30T13:22:29.411Z,34.70
2023-11-30T13:24:38.967Z,34.30
2023-11-30T13:26:48.129Z,25.90
2023-11-30T13:28:56.752Z,30.70
2023-11-30T13:31:05.583Z,27.00
2023-11-30T13:33:14.102Z,23.30
2023-11-30T13:35:22.682Z,26.00
2023-11-30T13:37:31.119Z,25.00
2023-11-30T13:39:39.626Z,20.90
2023-11-30T13:41:48.215Z,21.40
2023-11-30T13:43:57.229Z,19.00
2023-11-30T13:46:07.057Z,29.80
2023-11-30T13:48:17.108Z,27.40
2023-11-30T13:50:30.951Z,22.70
2023-11-30T13:52:45.914Z,20.10
2023-11-30T13:54:54.381Z,21.60
2023-11-30T13:57:02.835Z,20.70
2023-11-30T13:59:11.303Z,17.90
2023-11-30T14:01:19.852Z,16.10
2023-11-30T14:03:28.659Z,14.90
2023-11-30T14:05:37.412Z,12.90
2023-11-30T14:07:46.128Z,20.00
2023-11-30T14:09:54.696Z,18.80
2023-11-30T14:12:03.289Z,13.40
2023-11-30T14:14:12.423Z,12.60
2023-11-30T14:16:21.131Z,15.30
2023-11-30T14:18:30.069Z,10.40
2023-11-30T14:20:40.581Z,7.50
2023-11-30T14:22:49.487Z,11.80
2023-11-30T14:24:58.007Z,11.60
2023-11-30T14:27:07.192Z,9.60
2023-11-30T14:29:16.002Z,9.70
2023-11-30T14:31:24.585Z,10.20
2023-11-30T14:33:33.053Z,9.90
2023-11-30T14:35:41.821Z,8.90
2023-11-30T14:37:50.319Z,10.80
2023-11-30T14:39:58.724Z,10.00
2023-11-30T14:42:09.310Z,9.50
2023-11-30T14:44:17.802Z,11.00
2023-11-30T14:46:26.371Z,10.90
2023-11-30T14:48:34.971Z,9.80
2023-11-30T14:50:44.757Z,12.30
2023-11-30T14:52:54.550Z,12.60
2023-11-30T14:55:02.981Z,11.60
2023-11-30T14:57:14.466Z,11.40
2023-11-30T14:59:23.012Z,9.50
2023-11-30T15:01:31.704Z,13.10
2023-11-30T15:03:40.738Z,12.30
2023-11-30T15:05:49.519Z,13.00
2023-11-30T15:07:58.251Z,12.50
2023-11-30T15:10:08.887Z,11.90
2023-11-30T15:12:17.646Z,12.30
2023-11-30T15:14:26.317Z,13.60
2023-11-30T15:16:34.905Z,13.10
2023-11-30T15:18:43.440Z,14.20
2023-11-30T15:20:51.881Z,14.30
2023-11-30T15:23:00.328Z,12.20
2023-11-30T15:25:17.619Z,13.70
2023-11-30T15:27:26.289Z,14.90
2023-11-30T15:29:34.668Z,14.50
2023-11-30T15:31:43.455Z,16.10
2023-11-30T15:33:52.948Z,15.10
2023-11-30T15:36:01.620Z,15.30
2023-11-30T15:38:10.102Z,17.10
2023-11-30T15:40:19.148Z,19.10
2023-11-30T15:42:28.101Z,24.40
2023-11-30T15:44:36.761Z,34.70
2023-11-30T15:46:47.348Z,33.10
2023-11-30T15:48:56.035Z,29.60
2023-11-30T15:51:07.757Z,29.50
2023-11-30T15:53:17.734Z,28.80
2023-11-30T15:55:26.122Z,29.50
2023-11-30T15:57:35.000Z,25.10
2023-11-30T15:59:43.944Z,22.30
2023-11-30T16:01:52.509Z,19.30
2023-11-30T16:04:01.219Z,17.70
2023-11-30T16:06:13.901Z,15.90
2023-11-30T16:08:22.395Z,15.70
2023-11-30T16:10:30.835Z,13.70
2023-11-30T16:12:39.294Z,18.20
2023-11-30T16:14:52.109Z,19.20
2023-11-30T16:17:00.669Z,16.90
2023-11-30T16:19:10.233Z,18.40
2023-11-30T16:21:19.911Z,21.40
2023-11-30T16:23:28.463Z,21.10
2023-11-30T16:25:37.265Z,21.50
2023-11-30T16:27:45.940Z,21.20
2023-11-30T16:29:54.717Z,22.60
2023-11-30T16:32:03.233Z,25.80
2023-11-30T16:34:11.772Z,24.00
2023-11-30T16:36:20.340Z,22.70
2023-11-30T16:38:29.036Z,25.40
2023-11-30T16:40:37.430Z,28.50
2023-11-30T16:42:45.897Z,30.00
2023-11-30T16:44:54.408Z,31.30
2023-11-30T16:47:04.817Z,27.30
2023-11-30T16:49:14.027Z,29.60
2023-11-30T16:51:22.478Z,30.30
2023-11-30T16:53:31.050Z,33.20
2023-11-30T16:55:39.723Z,33.60
2023-11-30T16:57:48.556Z,33.90
2023-11-30T16:59:57.636Z,37.20
2023-11-30T17:02:07.845Z,44.40
2023-11-30T17:04:16.503Z,39.70
2023-11-30T17:06:25.171Z,40.90
2023-11-30T17:08:33.668Z,38.00
2023-11-30T17:10:42.216Z,39.60
2023-11-30T17:12:50.890Z,38.80
2023-11-30T17:14:59.424Z,36.70
2023-11-30T17:17:08.345Z,33.40
2023-11-30T17:19:16.851Z,32.50
2023-11-30T17:21:26.047Z,31.80
2023-11-30T17:23:34.658Z,31.10
2023-11-30T17:25:44.997Z,33.30
2023-11-30T17:27:54.995Z,38.20
2023-11-30T17:30:03.788Z,34.50
2023-11-30T17:32:12.608Z,34.40
2023-11-30T17:34:21.413Z,35.60
2023-11-30T17:36:30.376Z,37.70
2023-11-30T17:38:40.887Z,44.20
2023-11-30T17:40:49.566Z,42.50
2023-11-30T17:42:58.392Z,34.60
2023-11-30T17:45:09.288Z,30.70
2023-11-30T17:47:17.863Z,25.80
2023-11-30T17:49:26.408Z,19.90
2023-11-30T17:51:34.863Z,21.00
2023-11-30T17:53:43.315Z,18.10
2023-11-30T17:55:52.704Z,18.80
2023-11-30T17:58:01.313Z,18.80
2023-11-30T18:00:12.749Z,20.60
2023-11-30T18:02:21.380Z,22.10
2023-11-30T18:04:29.860Z,17.30
2023-11-30T18:06:38.663Z,19.30
2023-11-30T18:08:47.456Z,19.30
2023-11-30T18:10:55.987Z,14.40
2023-11-30T18:13:04.483Z,14.10
2023-11-30T18:15:13.610Z,14.70
2023-11-30T18:17:22.156Z,14.30
2023-11-30T18:19:32.267Z,13.70
2023-11-30T18:21:40.913Z,14.00
2023-11-30T18:23:50.309Z,9.70
2023-11-30T18:25:58.948Z,12.70
2023-11-30T18:28:07.786Z,19.30
2023-11-30T18:30:17.543Z,18.10
2023-11-30T18:32:26.177Z,14.60
2023-11-30T18:34:37.003Z,16.80
2023-11-30T18:36:46.235Z,16.50
2023-11-30T18:38:54.941Z,20.90
2023-11-30T18:41:03.400Z,18.90
2023-11-30T18:43:16.780Z,24.90
2023-11-30T18:45:25.359Z,15.90
2023-11-30T18:47:33.791Z,19.30
2023-11-30T18:49:42.505Z,20.50
2023-11-30T18:51:50.981Z,18.30
2023-11-30T18:54:01.274Z,11.90
2023-11-30T18:56:11.233Z,9.90
2023-11-30T18:58:22.626Z,9.30
2023-11-30T19:00:33.748Z,10.00
2023-11-30T19:02:42.271Z,9.70
2023-11-30T19:04:50.815Z,7.60
2023-11-30T19:06:59.416Z,8.70
2023-11-30T19:09:08.417Z,7.60
2023-11-30T19:11:17.609Z,8.30
2023-11-30T19:13:26.257Z,7.10
2023-11-30T19:15:41.253Z,9.60
2023-11-30T19:17:50.527Z,8.80
2023-11-30T19:19:59.305Z,10.70
2023-11-30T19:22:08.245Z,7.40
2023-11-30T19:24:17.560Z,8.60
2023-11-30T19:26:26.098Z,8.80
2023-11-30T19:28:35.692Z,11.70
2023-11-30T19:30:44.752Z,10.10
2023-11-30T19:32:53.523Z,13.90
2023-11-30T19:35:02.183Z,13.70
2023-11-30T19:37:12.001Z,11.90
2023-11-30T19:39:22.987Z,11.00
2023-11-30T19:41:32.211Z,9.40
2023-11-30T19:43:40.769Z,11.40
2023-11-30T19:45:49.718Z,8.50
2023-11-30T19:47:58.337Z,10.10
2023-11-30T19:50:07.710Z,9.70
2023-11-30T19:52:16.362Z,10.00
2023-11-30T19:54:24.852Z,8.00
2023-11-30T19:56:33.441Z,11.10
2023-11-30T19:58:42.985Z,11.50
2023-11-30T20:00:52.620Z,10.30
2023-11-30T20:03:01.116Z,8.70
2023-11-30T20:05:13.223Z,9.30
2023-11-30T20:07:21.755Z,8.90
2023-11-30T20:09:30.161Z,11.60
2023-11-30T20:11:38.624Z,11.10
2023-11-30T20:13:47.122Z,8.60
2023-11-30T20:15:56.460Z,9.20
2023-11-30T20:18:05.298Z,8.70
2023-11-30T20:20:15.172Z,9.10
2023-11-30T20:22:23.804Z,9.60
2023-11-30T20:24:35.403Z,7.40
2023-11-30T20:26:46.903Z,9.30
2023-11-30T20:28:55.547Z,9.30
2023-11-30T20:31:04.224Z,11.20
2023-11-30T20:33:13.003Z,8.10
2023-11-30T20:35:21.563Z,6.60
2023-11-30T20:37:29.966Z,5.40
2023-11-30T20:39:38.397Z,5.80
2023-11-30T20:41:46.835Z,6.00
2023-11-30T20:43:55.819Z,5.00
2023-11-30T20:46:04.466Z,7.40
2023-11-30T20:48:13.843Z,7.70
2023-11-30T20:50:22.939Z,7.00
2023-11-30T20:52:31.393Z,8.20
2023-11-30T20:54:41.011Z,6.90
2023-11-30T20:56:49.996Z,7.10
2023-11-30T20:58:58.504Z,5.80
2023-11-30T21:01:07.966Z,8.30
2023-11-30T21:05:42.880Z,7.60
2023-11-30T21:07:51.552Z,10.10
2023-11-30T21:10:00.582Z,9.40
2023-11-30T21:12:12.201Z,9.80
2023-11-30T21:14:21.442Z,10.10
2023-11-30T21:16:32.409Z,13.10
2023-11-30T21:18:46.289Z,18.40
2023-11-30T21:20:54.991Z,16.80
2023-11-30T21:23:03.883Z,12.80
2023-11-30T21:25:14.561Z,17.20
2023-11-30T21:27:23.203Z,11.30
2023-11-30T21:29:31.813Z,14.60
2023-11-30T21:31:41.775Z,11.00
2023-11-30T21:33:50.397Z,12.80
2023-11-30T21:35:59.924Z,12.20
2023-11-30T21:38:08.671Z,11.30
2023-11-30T21:40:17.903Z,12.30
2023-11-30T21:42:27.025Z,10.30
2023-11-30T21:44:39.382Z,8.10
2023-11-30T21:46:48.766Z,9.30
2023-11-30T21:48:57.646Z,6.40
2023-11-30T21:51:06.893Z,9.20
2023-11-30T21:53:15.559Z,7.40
2023-11-30T21:55:24.421Z,6.70
2023-11-30T21:57:32.999Z,9.60
2023-11-30T21:59:41.666Z,8.30
2023-11-30T22:01:50.434Z,8.70
2023-11-30T22:03:59.739Z,8.70
2023-11-30T22:06:10.017Z,6.80
2023-11-30T22:08:18.620Z,9.30
2023-11-30T22:10:27.346Z,8.20
2023-11-30T22:12:37.316Z,6.50
2023-11-30T22:14:45.882Z,7.20
2023-11-30T22:16:54.644Z,9.10
2023-11-30T22:19:03.953Z,4.90
2023-11-30T22:21:12.701Z,10.90
2023-11-30T22:23:21.628Z,9.10
2023-11-30T22:25:30.405Z,8.20
2023-11-30T22:27:39.059Z,9.60
2023-11-30T22:29:47.638Z,12.40
2023-11-30T22:31:56.136Z,10.40
2023-11-30T22:34:04.766Z,8.40
2023-11-30T22:36:14.456Z,5.60
2023-11-30T22:38:23.192Z,8.90
2023-11-30T22:40:31.692Z,6.50
2023-11-30T22:42:40.355Z,6.60
2023-11-30T22:44:48.927Z,8.40
2023-11-30T22:46:57.572Z,9.60
2023-11-30T22:49:06.373Z,8.20
2023-11-30T22:51:15.290Z,8.90
2023-11-30T22:53:23.897Z,7.40
2023-11-30T22:55:32.495Z,7.10
2023-11-30T22:57:41.228Z,5.70
2023-11-30T22:59:50.378Z,6.10
2023-11-30T23:01:59.041Z,6.70
2023-11-30T23:04:08.074Z,7.50
2023-11-30T23:06:17.772Z,6.70
2023-11-30T23:08:26.301Z,6.50
2023-11-30T23:10:35.083Z,8.90
2023-11-30T23:12:43.958Z,7.30
2023-11-30T23:14:52.498Z,8.50
2023-11-30T23:17:01.066Z,9.40
2023-11-30T23:19:09.700Z,9.50
2023-11-30T23:21:18.505Z,8.40
2023-11-30T23:23:27.230Z,8.30
2023-11-30T23:25:35.750Z,9.30
2023-11-30T23:27:44.263Z,8.30
2023-11-30T23:29:53.247Z,9.10
2023-11-30T23:32:01.789Z,6.60
2023-11-30T23:34:10.395Z,8.00
2023-11-30T23:36:19.059Z,8.70
2023-11-30T23:38:27.613Z,6.80
2023-11-30T23:40:36.215Z,6.80
2023-11-30T23:42:44.754Z,8.10
2023-11-30T23:44:53.240Z,7.90
2023-11-30T23:47:01.772Z,6.60
2023-11-30T23:49:10.304Z,7.10
2023-11-30T23:51:18.840Z,7.70
2023-11-30T23:53:27.748Z,6.10
2023-11-30T23:55:36.323Z,5.50
2023-11-30T23:57:44.942Z,5.90
2023-11-30T23:59:54.098Z,4.60
